sensor_id;sensor_type;location;lat;lon;timestamp;P1;durP1;ratioP1;P2;durP2;ratioP2
15915;SDS011;8057;47.830;-3.870;2023-05-07T06:51:42;1.70;;;1.60;;
15915;SDS011;8057;47.830;-3.870;2023-05-07T07:59:35;2.40;;;2.20;;
15915;SDS011;8057;47.830;-3.870;2023-05-07T08:04:04;2.27;;;2.07;;
15915;SDS011;8057;47.830;-3.870;2023-05-07T08:08:27;3.07;;;2.10;;
15915;SDS011;8057;47.830;-3.870;2023-05-07T08:13:09;2.10;;;1.90;;
15915;SDS011;8057;47.830;-3.870;2023-05-07T08:22:19;3.97;;;2.53;;
15915;SDS011;8057;47.830;-3.870;2023-05-07T08:26:33;4.10;;;2.83;;
15915;SDS011;8057;47.830;-3.870;2023-05-07T08:30:43;2.30;;;2.10;;
15915;SDS011;8057;47.830;-3.870;2023-05-07T08:35:52;3.50;;;3.20;;
15915;SDS011;8057;47.830;-3.870;2023-05-07T08:40:39;4.13;;;3.73;;
15915;SDS011;8057;47.830;-3.870;2023-05-07T08:45:19;4.30;;;3.90;;
15915;SDS011;8057;47.830;-3.870;2023-05-07T08:49:34;4.80;;;4.30;;
15915;SDS011;8057;47.830;-3.870;2023-05-07T09:23:08;2.27;;;2.00;;
15915;SDS011;8057;47.830;-3.870;2023-05-07T09:27:47;1.67;;;1.37;;
15915;SDS011;8057;47.830;-3.870;2023-05-07T09:32:26;1.60;;;1.50;;
15915;SDS011;8057;47.830;-3.870;2023-05-07T09:37:18;1.43;;;1.30;;
15915;SDS011;8057;47.830;-3.870;2023-05-07T12:24:17;2.77;;;1.47;;
15915;SDS011;8057;47.830;-3.870;2023-05-07T12:33:07;3.13;;;1.57;;
15915;SDS011;8057;47.830;-3.870;2023-05-07T12:37:23;2.40;;;1.30;;
15915;SDS011;8057;47.830;-3.870;2023-05-07T12:46:33;2.73;;;1.53;;
15915;SDS011;8057;47.830;-3.870;2023-05-07T12:51:07;3.07;;;1.40;;
15915;SDS011;8057;47.830;-3.870;2023-05-07T12:55:20;4.63;;;1.70;;
15915;SDS011;8057;47.830;-3.870;2023-05-07T12:59:33;3.43;;;1.90;;
15915;SDS011;8057;47.830;-3.870;2023-05-07T13:07:58;3.63;;;2.23;;
15915;SDS011;8057;47.830;-3.870;2023-05-07T13:12:11;2.13;;;1.70;;
15915;SDS011;8057;47.830;-3.870;2023-05-07T13:16:32;2.33;;;1.30;;
15915;SDS011;8057;47.830;-3.870;2023-05-07T13:20:42;3.60;;;1.60;;
15915;SDS011;8057;47.830;-3.870;2023-05-07T13:25:09;2.87;;;1.80;;
15915;SDS011;8057;47.830;-3.870;2023-05-07T13:29:34;3.07;;;1.50;;
15915;SDS011;8057;47.830;-3.870;2023-05-07T13:34:01;3.27;;;1.70;;
15915;SDS011;8057;47.830;-3.870;2023-05-07T13:38:15;2.97;;;1.73;;
15915;SDS011;8057;47.830;-3.870;2023-05-07T13:42:39;2.07;;;1.60;;
15915;SDS011;8057;47.830;-3.870;2023-05-07T13:47:02;1.80;;;1.20;;
15915;SDS011;8057;47.830;-3.870;2023-05-07T14:01:25;3.23;;;1.50;;
15915;SDS011;8057;47.830;-3.870;2023-05-07T14:06:14;1.77;;;1.60;;
15915;SDS011;8057;47.830;-3.870;2023-05-07T14:11:32;2.77;;;1.47;;
15915;SDS011;8057;47.830;-3.870;2023-05-07T14:26:25;1.77;;;1.03;;
15915;SDS011;8057;47.830;-3.870;2023-05-07T14:31:03;1.93;;;1.20;;
15915;SDS011;8057;47.830;-3.870;2023-05-07T14:35:39;2.53;;;1.13;;
15915;SDS011;8057;47.830;-3.870;2023-05-07T14:39:55;1.50;;;1.17;;
15915;SDS011;8057;47.830;-3.870;2023-05-07T14:44:19;2.00;;;1.27;;
15915;SDS011;8057;47.830;-3.870;2023-05-07T14:48:29;6.07;;;1.60;;
15915;SDS011;8057;47.830;-3.870;2023-05-07T14:52:39;1.33;;;0.97;;
15915;SDS011;8057;47.830;-3.870;2023-05-07T15:11:05;2.87;;;1.40;;
15915;SDS011;8057;47.830;-3.870;2023-05-07T15:15:15;1.27;;;0.70;;
15915;SDS011;8057;47.830;-3.870;2023-05-07T15:19:39;1.47;;;0.87;;
15915;SDS011;8057;47.830;-3.870;2023-05-07T15:24:16;2.20;;;0.80;;
15915;SDS011;8057;47.830;-3.870;2023-05-07T15:28:37;1.90;;;1.30;;
15915;SDS011;8057;47.830;-3.870;2023-05-07T15:32:47;1.67;;;1.07;;
15915;SDS011;8057;47.830;-3.870;2023-05-07T15:36:57;3.53;;;2.10;;
15915;SDS011;8057;47.830;-3.870;2023-05-07T15:41:08;4.80;;;2.30;;
15915;SDS011;8057;47.830;-3.870;2023-05-07T15:45:19;3.70;;;2.03;;
15915;SDS011;8057;47.830;-3.870;2023-05-07T15:49:28;2.30;;;2.10;;
15915;SDS011;8057;47.830;-3.870;2023-05-07T15:53:38;3.57;;;2.37;;
15915;SDS011;8057;47.830;-3.870;2023-05-07T15:57:52;3.03;;;2.40;;
15915;SDS011;8057;47.830;-3.870;2023-05-07T16:02:14;2.67;;;2.37;;
15915;SDS011;8057;47.830;-3.870;2023-05-07T16:06:24;5.37;;;2.63;;
15915;SDS011;8057;47.830;-3.870;2023-05-07T16:10:33;3.80;;;2.47;;
15915;SDS011;8057;47.830;-3.870;2023-05-07T16:14:44;4.20;;;2.33;;
15915;SDS011;8057;47.830;-3.870;2023-05-07T16:18:54;2.00;;;1.70;;
15915;SDS011;8057;47.830;-3.870;2023-05-07T16:23:15;4.27;;;1.43;;
15915;SDS011;8057;47.830;-3.870;2023-05-07T16:27:26;1.63;;;1.30;;
15915;SDS011;8057;47.830;-3.870;2023-05-07T16:31:36;1.90;;;1.03;;
15915;SDS011;8057;47.830;-3.870;2023-05-07T16:35:50;1.40;;;0.90;;
15915;SDS011;8057;47.830;-3.870;2023-05-07T16:40:00;1.20;;;0.83;;
15915;SDS011;8057;47.830;-3.870;2023-05-07T16:44:13;1.13;;;1.00;;
15915;SDS011;8057;47.830;-3.870;2023-05-07T16:48:25;2.27;;;1.23;;
15915;SDS011;8057;47.830;-3.870;2023-05-07T16:52:36;0.90;;;0.80;;
15915;SDS011;8057;47.830;-3.870;2023-05-07T16:56:50;2.93;;;1.30;;
15915;SDS011;8057;47.830;-3.870;2023-05-07T17:01:15;1.27;;;0.97;;
15915;SDS011;8057;47.830;-3.870;2023-05-07T17:05:26;3.47;;;1.20;;
15915;SDS011;8057;47.830;-3.870;2023-05-07T17:09:38;1.53;;;0.80;;
15915;SDS011;8057;47.830;-3.870;2023-05-07T17:13:51;1.20;;;1.10;;
15915;SDS011;8057;47.830;-3.870;2023-05-07T17:18:01;2.03;;;1.10;;
15915;SDS011;8057;47.830;-3.870;2023-05-07T17:22:21;2.90;;;1.33;;
15915;SDS011;8057;47.830;-3.870;2023-05-07T17:26:52;1.77;;;1.27;;
15915;SDS011;8057;47.830;-3.870;2023-05-07T17:31:28;3.20;;;1.10;;
15915;SDS011;8057;47.830;-3.870;2023-05-07T17:35:43;1.50;;;1.10;;
15915;SDS011;8057;47.830;-3.870;2023-05-07T17:39:55;1.53;;;1.10;;
15915;SDS011;8057;47.830;-3.870;2023-05-07T17:44:04;1.73;;;1.40;;
15915;SDS011;8057;47.830;-3.870;2023-05-07T17:48:14;1.83;;;1.30;;
15915;SDS011;8057;47.830;-3.870;2023-05-07T17:52:24;2.40;;;1.67;;
15915;SDS011;8057;47.830;-3.870;2023-05-07T17:56:36;2.60;;;1.53;;
15915;SDS011;8057;47.830;-3.870;2023-05-07T18:00:46;3.27;;;1.57;;
15915;SDS011;8057;47.830;-3.870;2023-05-07T18:04:56;2.67;;;1.70;;
15915;SDS011;8057;47.830;-3.870;2023-05-07T18:09:07;2.20;;;1.70;;
15915;SDS011;8057;47.830;-3.870;2023-05-07T18:13:19;2.47;;;1.70;;
15915;SDS011;8057;47.830;-3.870;2023-05-07T18:17:29;3.63;;;2.00;;
15915;SDS011;8057;47.830;-3.870;2023-05-07T18:21:41;4.03;;;1.93;;
15915;SDS011;8057;47.830;-3.870;2023-05-07T18:25:52;4.20;;;1.97;;
15915;SDS011;8057;47.830;-3.870;2023-05-07T18:30:04;2.20;;;2.00;;
15915;SDS011;8057;47.830;-3.870;2023-05-07T18:34:15;3.50;;;2.00;;
15915;SDS011;8057;47.830;-3.870;2023-05-07T18:38:26;4.47;;;2.53;;
15915;SDS011;8057;47.830;-3.870;2023-05-07T18:42:37;2.83;;;2.10;;
15915;SDS011;8057;47.830;-3.870;2023-05-07T18:46:50;4.30;;;2.60;;
15915;SDS011;8057;47.830;-3.870;2023-05-07T18:51:01;4.57;;;2.60;;
15915;SDS011;8057;47.830;-3.870;2023-05-07T18:55:13;2.90;;;2.00;;
15915;SDS011;8057;47.830;-3.870;2023-05-07T18:59:24;3.30;;;2.47;;
15915;SDS011;8057;47.830;-3.870;2023-05-07T19:03:37;2.87;;;2.43;;
15915;SDS011;8057;47.830;-3.870;2023-05-07T19:07:47;3.63;;;2.40;;
15915;SDS011;8057;47.830;-3.870;2023-05-07T19:12:05;3.27;;;2.50;;
15915;SDS011;8057;47.830;-3.870;2023-05-07T19:16:15;2.53;;;2.00;;
15915;SDS011;8057;47.830;-3.870;2023-05-07T19:25:35;3.43;;;2.40;;
15915;SDS011;8057;47.830;-3.870;2023-05-07T19:29:58;5.03;;;2.70;;
15915;SDS011;8057;47.830;-3.870;2023-05-07T19:39:06;3.50;;;2.33;;
15915;SDS011;8057;47.830;-3.870;2023-05-07T19:47:48;4.63;;;2.70;;
15915;SDS011;8057;47.830;-3.870;2023-05-07T19:52:27;4.97;;;2.83;;
15915;SDS011;8057;47.830;-3.870;2023-05-07T19:57:37;5.20;;;3.07;;
15915;SDS011;8057;47.830;-3.870;2023-05-07T20:06:57;2.80;;;2.47;;
15915;SDS011;8057;47.830;-3.870;2023-05-07T20:11:12;4.23;;;2.93;;
15915;SDS011;8057;47.830;-3.870;2023-05-07T20:21:01;6.10;;;2.87;;
15915;SDS011;8057;47.830;-3.870;2023-05-07T20:25:13;3.57;;;3.10;;
15915;SDS011;8057;47.830;-3.870;2023-05-07T20:29:23;5.47;;;3.20;;
15915;SDS011;8057;47.830;-3.870;2023-05-07T20:33:47;4.40;;;3.20;;
15915;SDS011;8057;47.830;-3.870;2023-05-07T20:37:58;4.67;;;3.20;;
15915;SDS011;8057;47.830;-3.870;2023-05-07T20:42:09;4.20;;;3.10;;
15915;SDS011;8057;47.830;-3.870;2023-05-07T20:46:20;4.40;;;4.00;;
15915;SDS011;8057;47.830;-3.870;2023-05-07T20:50:31;4.50;;;3.43;;
15915;SDS011;8057;47.830;-3.870;2023-05-07T20:54:41;5.37;;;3.80;;
15915;SDS011;8057;47.830;-3.870;2023-05-07T20:58:55;4.30;;;3.60;;
15915;SDS011;8057;47.830;-3.870;2023-05-07T21:03:05;4.70;;;3.87;;
15915;SDS011;8057;47.830;-3.870;2023-05-07T21:07:17;6.10;;;3.83;;
15915;SDS011;8057;47.830;-3.870;2023-05-07T21:11:27;3.77;;;3.47;;
15915;SDS011;8057;47.830;-3.870;2023-05-07T21:15:39;4.87;;;3.63;;
15915;SDS011;8057;47.830;-3.870;2023-05-07T21:19:49;4.30;;;3.33;;
15915;SDS011;8057;47.830;-3.870;2023-05-07T21:23:59;4.77;;;3.93;;
15915;SDS011;8057;47.830;-3.870;2023-05-07T21:28:09;5.27;;;3.70;;
15915;SDS011;8057;47.830;-3.870;2023-05-07T21:32:21;4.67;;;4.10;;
15915;SDS011;8057;47.830;-3.870;2023-05-07T21:36:31;5.00;;;3.23;;
15915;SDS011;8057;47.830;-3.870;2023-05-07T21:40:41;6.23;;;3.63;;
15915;SDS011;8057;47.830;-3.870;2023-05-07T21:44:51;3.77;;;3.20;;
15915;SDS011;8057;47.830;-3.870;2023-05-07T21:49:03;3.90;;;3.53;;
15915;SDS011;8057;47.830;-3.870;2023-05-07T21:53:13;5.57;;;3.03;;
15915;SDS011;8057;47.830;-3.870;2023-05-07T21:57:23;5.67;;;3.57;;
15915;SDS011;8057;47.830;-3.870;2023-05-07T22:01:33;4.40;;;3.63;;
15915;SDS011;8057;47.830;-3.870;2023-05-07T22:05:44;4.63;;;3.10;;
15915;SDS011;8057;47.830;-3.870;2023-05-07T22:09:55;4.40;;;3.40;;
15915;SDS011;8057;47.830;-3.870;2023-05-07T22:14:05;3.57;;;2.90;;
15915;SDS011;8057;47.830;-3.870;2023-05-07T22:18:15;5.40;;;3.70;;
15915;SDS011;8057;47.830;-3.870;2023-05-07T22:22:28;2.93;;;2.73;;
15915;SDS011;8057;47.830;-3.870;2023-05-07T22:26:42;3.80;;;3.00;;
15915;SDS011;8057;47.830;-3.870;2023-05-07T22:30:53;3.80;;;2.70;;
15915;SDS011;8057;47.830;-3.870;2023-05-07T22:35:07;4.37;;;2.97;;
15915;SDS011;8057;47.830;-3.870;2023-05-07T22:39:24;5.53;;;3.60;;
15915;SDS011;8057;47.830;-3.870;2023-05-07T22:43:43;4.30;;;3.90;;
15915;SDS011;8057;47.830;-3.870;2023-05-07T22:47:55;7.37;;;4.13;;
15915;SDS011;8057;47.830;-3.870;2023-05-07T22:52:10;6.17;;;4.40;;
15915;SDS011;8057;47.830;-3.870;2023-05-07T22:56:21;7.77;;;4.93;;
15915;SDS011;8057;47.830;-3.870;2023-05-07T23:00:32;5.90;;;4.57;;
15915;SDS011;8057;47.830;-3.870;2023-05-07T23:04:46;8.00;;;4.63;;
15915;SDS011;8057;47.830;-3.870;2023-05-07T23:09:08;5.90;;;4.37;;
15915;SDS011;8057;47.830;-3.870;2023-05-07T23:13:20;6.17;;;4.10;;
15915;SDS011;8057;47.830;-3.870;2023-05-07T23:17:31;6.97;;;4.17;;
15915;SDS011;8057;47.830;-3.870;2023-05-07T23:21:41;7.27;;;4.40;;
15915;SDS011;8057;47.830;-3.870;2023-05-07T23:25:51;5.30;;;4.33;;
15915;SDS011;8057;47.830;-3.870;2023-05-07T23:30:03;4.57;;;4.17;;
15915;SDS011;8057;47.830;-3.870;2023-05-07T23:34:14;4.90;;;4.10;;
15915;SDS011;8057;47.830;-3.870;2023-05-07T23:38:30;4.70;;;3.77;;
15915;SDS011;8057;47.830;-3.870;2023-05-07T23:42:40;8.30;;;4.30;;
15915;SDS011;8057;47.830;-3.870;2023-05-07T23:46:51;5.03;;;3.80;;
15915;SDS011;8057;47.830;-3.870;2023-05-07T23:51:02;7.70;;;4.17;;
15915;SDS011;8057;47.830;-3.870;2023-05-07T23:55:11;7.30;;;3.47;;
15915;SDS011;8057;47.830;-3.870;2023-05-07T23:59:23;5.33;;;3.80;;
